createdAt,value
2024-02-16T00:02:04.619Z,100198.81
2024-02-16T00:04:32.277Z,100192.34
2024-02-16T00:06:59.458Z,100195.34
2024-02-16T00:09:26.464Z,100199.41
2024-02-16T00:11:54.016Z,100192.78
2024-02-16T00:14:21.375Z,100197.50
2024-02-16T00:16:49.081Z,100200.16
2024-02-16T00:19:16.345Z,100196.69
2024-02-16T00:21:43.865Z,100198.09
2024-02-16T00:24:11.217Z,100191.31
2024-02-16T00:26:40.906Z,100177.56
2024-02-16T00:29:08.215Z,100169.94
2024-02-16T00:31:35.247Z,100188.00
2024-02-16T00:34:02.320Z,100185.72
2024-02-16T00:36:31.692Z,100176.97
2024-02-16T00:38:59.648Z,100178.19
2024-02-16T00:41:27.293Z,100173.31
2024-02-16T00:43:54.617Z,100177.41
2024-02-16T00:46:24.300Z,100188.41
2024-02-16T00:48:52.925Z,100191.00
2024-02-16T00:51:20.182Z,100186.97
2024-02-16T00:53:47.709Z,100189.31
2024-02-16T00:56:14.666Z,100188.44
2024-02-16T00:58:44.007Z,100190.47
2024-02-16T01:01:13.528Z,100191.31
2024-02-16T01:03:41.077Z,100187.59
2024-02-16T01:06:10.364Z,100195.44
2024-02-16T01:08:37.416Z,100196.03
2024-02-16T01:11:04.585Z,100183.78
2024-02-16T01:13:31.609Z,100189.31
2024-02-16T01:15:58.536Z,100177.16
2024-02-16T01:18:26.147Z,100173.22
2024-02-16T01:20:53.454Z,100183.22
2024-02-16T01:23:21.515Z,100170.03
2024-02-16T01:25:49.482Z,100176.41
2024-02-16T01:28:16.326Z,100164.91
2024-02-16T01:30:43.408Z,100172.72
2024-02-16T01:33:10.374Z,100167.38
2024-02-16T01:35:37.517Z,100161.81
2024-02-16T01:38:04.499Z,100164.25
2024-02-16T01:40:31.359Z,100173.81
2024-02-16T01:42:58.822Z,100159.13
2024-02-16T01:45:25.697Z,100165.72
2024-02-16T01:47:54.892Z,100164.06
2024-02-16T01:50:23.252Z,100160.13
2024-02-16T01:52:51.295Z,100152.75
2024-02-16T01:55:18.492Z,100161.25
2024-02-16T01:57:49.559Z,100166.34
2024-02-16T02:00:19.092Z,100146.81
2024-02-16T02:02:47.743Z,100137.94
2024-02-16T02:05:16.899Z,100149.09
2024-02-16T02:07:44.552Z,100141.22
2024-02-16T02:10:14.088Z,100153.50
2024-02-16T02:12:41.787Z,100140.13
2024-02-16T02:15:10.042Z,100137.28
2024-02-16T02:17:37.122Z,100127.28
2024-02-16T02:20:05.544Z,100118.97
2024-02-16T02:22:32.529Z,100120.56
2024-02-16T02:24:59.388Z,100111.72
2024-02-16T02:27:26.397Z,100123.69
2024-02-16T02:29:53.334Z,100126.38
2024-02-16T02:32:20.588Z,100143.81
2024-02-16T02:34:47.709Z,100136.28
2024-02-16T02:37:14.691Z,100134.41
2024-02-16T02:39:41.759Z,100131.56
2024-02-16T02:42:09.557Z,100120.63
2024-02-16T02:44:36.476Z,100130.88
2024-02-16T02:47:03.593Z,100133.84
2024-02-16T02:49:30.767Z,100119.66
2024-02-16T02:51:57.669Z,100125.34
2024-02-16T02:54:24.565Z,100121.03
2024-02-16T02:56:51.529Z,100117.97
2024-02-16T02:59:18.496Z,100134.28
2024-02-16T03:01:45.956Z,100135.44
2024-02-16T03:04:13.075Z,100138.16
2024-02-16T03:06:40.080Z,100140.81
2024-02-16T03:09:08.032Z,100149.44
2024-02-16T03:11:35.073Z,100153.72
2024-02-16T03:14:02.006Z,100152.50
2024-02-16T03:16:28.841Z,100160.28
2024-02-16T03:18:56.614Z,100152.81
2024-02-16T03:21:23.647Z,100147.53
2024-02-16T03:23:50.576Z,100139.69
2024-02-16T03:26:19.988Z,100147.88
2024-02-16T03:28:50.754Z,100158.50
2024-02-16T03:31:23.264Z,100159.78
2024-02-16T03:33:52.653Z,100158.06
2024-02-16T03:36:20.973Z,100150.91
2024-02-16T03:38:52.495Z,100167.63
2024-02-16T03:41:22.174Z,100172.72
2024-02-16T03:43:49.113Z,100188.56
2024-02-16T03:46:16.082Z,100190.81
2024-02-16T03:48:43.272Z,100217.13
2024-02-16T03:51:10.526Z,100214.28
2024-02-16T03:53:37.497Z,100216.84
2024-02-16T03:56:04.660Z,100221.72
2024-02-16T03:58:32.599Z,100225.31
2024-02-16T04:00:59.859Z,100222.50
2024-02-16T04:03:26.872Z,100225.34
2024-02-16T04:05:54.389Z,100224.19
2024-02-16T04:08:21.501Z,100220.13
2024-02-16T04:10:48.647Z,100229.09
2024-02-16T04:13:15.744Z,100231.06
2024-02-16T04:15:42.843Z,100224.22
2024-02-16T04:18:10.714Z,100239.28
2024-02-16T04:20:39.261Z,100226.81
2024-02-16T04:23:06.197Z,100224.66
2024-02-16T04:25:33.142Z,100246.97
2024-02-16T04:28:00.355Z,100232.75
2024-02-16T04:30:27.480Z,100236.34
2024-02-16T04:32:54.678Z,100244.72
2024-02-16T04:35:21.718Z,100249.81
2024-02-16T04:37:48.576Z,100238.59
2024-02-16T04:40:16.614Z,100237.09
2024-02-16T04:42:43.492Z,100258.78
2024-02-16T04:45:14.781Z,100258.22
2024-02-16T04:47:41.887Z,100263.31
2024-02-16T04:50:12.531Z,100241.81
2024-02-16T04:52:42.290Z,100238.16
2024-02-16T04:55:09.347Z,100266.59
2024-02-16T04:57:37.666Z,100265.16
2024-02-16T05:00:05.429Z,100275.06
2024-02-16T05:02:32.363Z,100264.06
2024-02-16T05:05:02.264Z,100265.72
2024-02-16T05:07:32.801Z,100286.22
2024-02-16T05:10:00.180Z,100282.22
2024-02-16T05:12:27.933Z,100287.72
2024-02-16T05:14:55.473Z,100300.91
2024-02-16T05:17:23.870Z,100296.88
2024-02-16T05:19:51.276Z,100309.09
2024-02-16T05:22:23.009Z,100293.06
2024-02-16T05:24:50.090Z,100307.22
2024-02-16T05:27:17.088Z,100294.84
2024-02-16T05:29:43.979Z,100289.31
2024-02-16T05:32:11.846Z,100290.19
2024-02-16T05:34:39.151Z,100297.88
2024-02-16T05:37:10.494Z,100294.56
2024-02-16T05:39:54.674Z,100273.00
2024-02-16T05:42:24.503Z,100279.47
2024-02-16T05:44:52.557Z,100279.47
2024-02-16T05:47:20.552Z,100286.38
2024-02-16T05:49:48.103Z,100287.44
2024-02-16T05:52:24.789Z,100296.94
2024-02-16T05:54:51.787Z,100274.53
2024-02-16T05:57:19.630Z,100309.28
2024-02-16T05:59:47.151Z,100286.44
2024-02-16T06:02:15.567Z,100294.16
2024-02-16T06:04:42.997Z,100310.22
2024-02-16T06:07:10.161Z,100290.63
2024-02-16T06:09:38.728Z,100304.66
2024-02-16T06:12:08.507Z,100324.09
2024-02-16T06:14:35.948Z,100311.91
2024-02-16T06:17:02.961Z,100323.19
2024-02-16T06:19:30.533Z,100323.41
2024-02-16T06:21:57.688Z,100332.91
2024-02-16T06:24:24.972Z,100336.38
2024-02-16T06:26:57.553Z,100329.53
2024-02-16T06:29:25.448Z,100342.59
2024-02-16T06:31:53.349Z,100348.88
2024-02-16T06:34:20.748Z,100347.88
2024-02-16T06:36:47.960Z,100356.25
2024-02-16T06:39:18.296Z,100357.69
2024-02-16T06:41:49.164Z,100358.25
2024-02-16T06:44:17.275Z,100358.47
2024-02-16T06:46:52.498Z,100355.09
2024-02-16T06:49:33.591Z,100368.38
2024-02-16T06:55:21.634Z,100359.69
2024-02-16T06:57:54.704Z,100357.56
2024-02-16T07:00:48.417Z,100375.50
2024-02-16T07:03:35.785Z,100373.53
2024-02-16T07:06:04.341Z,100374.94
2024-02-16T07:08:40.500Z,100369.47
2024-02-16T07:11:12.758Z,100362.78
2024-02-16T07:13:46.627Z,100359.56
2024-02-16T07:16:23.371Z,100360.88
2024-02-16T07:21:34.846Z,100378.81
2024-02-16T07:24:16.651Z,100380.50
2024-02-16T07:27:11.584Z,100392.19
2024-02-16T07:29:42.542Z,100387.50
2024-02-16T07:32:25.107Z,100396.84
2024-02-16T07:35:10.282Z,100389.66
2024-02-16T07:37:43.472Z,100399.88
2024-02-16T07:40:10.660Z,100406.56
2024-02-16T07:42:45.934Z,100410.22
2024-02-16T07:45:13.300Z,100403.91
2024-02-16T07:47:43.059Z,100415.88
2024-02-16T07:50:11.290Z,100403.88
2024-02-16T07:52:39.697Z,100428.16
2024-02-16T07:55:09.972Z,100404.88
2024-02-16T07:57:37.574Z,100417.19
2024-02-16T08:00:08.434Z,100414.06
2024-02-16T08:02:35.615Z,100413.50
2024-02-16T08:05:02.644Z,100416.03
2024-02-16T08:07:32.109Z,100421.34
2024-02-16T08:09:59.244Z,100426.03
2024-02-16T08:12:28.451Z,100416.44
2024-02-16T08:14:57.260Z,100411.16
2024-02-16T08:17:25.555Z,100422.19
2024-02-16T08:19:56.581Z,100421.03
2024-02-16T08:22:24.003Z,100422.72
2024-02-16T08:24:51.380Z,100423.06
2024-02-16T08:27:18.574Z,100426.75
2024-02-16T08:29:46.073Z,100418.97
2024-02-16T08:32:14.576Z,100423.00
2024-02-16T08:34:41.708Z,100433.34
2024-02-16T08:37:09.212Z,100430.81
2024-02-16T08:39:39.293Z,100428.19
2024-02-16T08:42:06.540Z,100431.84
2024-02-16T08:44:33.580Z,100436.81
2024-02-16T08:47:00.562Z,100440.91
2024-02-16T08:49:28.311Z,100433.59
2024-02-16T08:51:55.362Z,100441.91
2024-02-16T08:54:22.333Z,100450.78
2024-02-16T08:56:49.466Z,100442.22
2024-02-16T08:59:16.418Z,100439.16
2024-02-16T09:01:44.355Z,100446.50
2024-02-16T09:04:11.701Z,100456.31
2024-02-16T09:06:40.344Z,100448.16
2024-02-16T09:09:13.302Z,100440.69
2024-02-16T09:11:40.530Z,100445.00
2024-02-16T09:14:07.477Z,100443.38
2024-02-16T09:16:34.329Z,100455.28
2024-02-16T09:19:01.504Z,100450.97
2024-02-16T09:21:30.936Z,100451.81
2024-02-16T09:24:02.804Z,100445.34
2024-02-16T09:26:34.831Z,100452.13
2024-02-16T09:29:02.242Z,100439.78
2024-02-16T09:31:29.714Z,100457.31
2024-02-16T09:33:56.749Z,100442.78
2024-02-16T09:36:24.546Z,100448.59
2024-02-16T09:38:52.094Z,100443.81
2024-02-16T09:41:19.941Z,100444.69
2024-02-16T09:43:46.968Z,100446.31
2024-02-16T09:46:15.826Z,100457.34
2024-02-16T09:48:49.637Z,100452.28
2024-02-16T09:51:17.474Z,100463.53
2024-02-16T09:53:44.490Z,100454.00
2024-02-16T09:56:11.429Z,100451.72
2024-02-16T09:58:38.364Z,100449.75
2024-02-16T10:01:05.616Z,100452.69
2024-02-16T10:03:36.330Z,100452.84
2024-02-16T10:06:09.025Z,100452.19
2024-02-16T10:08:48.325Z,100452.19
2024-02-16T10:11:16.288Z,100457.13
2024-02-16T10:13:43.220Z,100452.53
2024-02-16T10:16:13.388Z,100450.44
2024-02-16T10:18:40.577Z,100448.97
2024-02-16T10:21:08.883Z,100446.78
2024-02-16T10:23:43.550Z,100455.53
2024-02-16T10:26:11.256Z,100455.59
2024-02-16T10:28:39.065Z,100454.16
2024-02-16T10:31:06.796Z,100441.69
2024-02-16T10:33:35.192Z,100444.63
2024-02-16T10:36:04.529Z,100439.97
2024-02-16T10:38:32.275Z,100444.59
2024-02-16T10:41:02.612Z,100438.66
2024-02-16T10:43:31.350Z,100439.63
2024-02-16T10:45:58.374Z,100443.25
2024-02-16T10:48:25.488Z,100437.09
2024-02-16T10:50:54.174Z,100443.75
2024-02-16T10:53:26.683Z,100440.78
2024-02-16T10:55:53.698Z,100439.88
2024-02-16T10:58:21.514Z,100440.81
2024-02-16T11:00:56.287Z,100448.63
2024-02-16T11:03:25.802Z,100442.81
2024-02-16T11:05:54.346Z,100430.88
2024-02-16T11:08:29.576Z,100442.28
2024-02-16T11:11:02.061Z,100446.28
2024-02-16T11:13:33.135Z,100441.72
2024-02-16T11:16:02.184Z,100446.59
2024-02-16T11:18:33.428Z,100426.84
2024-02-16T11:21:05.034Z,100434.97
2024-02-16T11:23:32.970Z,100433.56
2024-02-16T11:26:10.226Z,100432.50
2024-02-16T11:28:37.189Z,100430.59
2024-02-16T11:31:04.993Z,100423.66
2024-02-16T11:33:32.772Z,100411.88
2024-02-16T11:36:01.613Z,100418.16
2024-02-16T11:38:28.786Z,100410.41
2024-02-16T11:41:00.718Z,100419.44
2024-02-16T11:43:27.855Z,100410.06
2024-02-16T11:45:55.017Z,100413.22
2024-02-16T11:48:29.383Z,100413.88
2024-02-16T11:51:04.808Z,100414.13
2024-02-16T11:53:32.453Z,100414.53
2024-02-16T11:55:59.607Z,100409.97
2024-02-16T11:58:27.225Z,100414.53
2024-02-16T12:00:54.454Z,100406.63
2024-02-16T12:03:26.910Z,100407.13
2024-02-16T12:05:57.715Z,100414.91
2024-02-16T12:08:25.658Z,100410.44
2024-02-16T12:10:53.333Z,100416.72
2024-02-16T12:13:21.714Z,100405.56
2024-02-16T12:15:53.148Z,100405.34
2024-02-16T12:18:27.195Z,100397.78
2024-02-16T12:21:07.027Z,100402.56
2024-02-16T12:23:34.893Z,100404.94
2024-02-16T12:26:02.920Z,100398.91
2024-02-16T12:28:34.083Z,100397.63
2024-02-16T12:31:04.095Z,100396.38
2024-02-16T12:33:31.751Z,100399.31
2024-02-16T12:35:58.911Z,100396.28
2024-02-16T12:38:25.879Z,100404.00
2024-02-16T12:40:53.055Z,100399.06
2024-02-16T12:43:21.369Z,100391.41
2024-02-16T12:45:48.589Z,100401.97
2024-02-16T12:48:16.306Z,100405.22
2024-02-16T12:50:43.535Z,100397.53
2024-02-16T12:53:13.646Z,100394.81
2024-02-16T12:55:40.611Z,100394.59
2024-02-16T12:58:07.680Z,100390.75
2024-02-16T13:00:34.894Z,100393.28
2024-02-16T13:03:01.831Z,100388.13
2024-02-16T13:05:29.062Z,100398.06
2024-02-16T13:07:56.127Z,100398.09
2024-02-16T13:10:23.251Z,100400.50
2024-02-16T13:12:50.238Z,100386.31
2024-02-16T13:15:26.695Z,100395.66
2024-02-16T13:17:56.228Z,100395.84
2024-02-16T13:20:23.721Z,100403.44
2024-02-16T13:22:50.843Z,100401.25
2024-02-16T13:25:17.947Z,100403.50
2024-02-16T13:27:44.947Z,100407.88
2024-02-16T13:30:12.357Z,100395.84
2024-02-16T13:32:41.549Z,100400.84
2024-02-16T13:35:09.472Z,100394.06
2024-02-16T13:37:36.603Z,100391.19
2024-02-16T13:40:08.080Z,100405.34
2024-02-16T13:42:35.283Z,100410.78
2024-02-16T13:45:02.548Z,100394.81
2024-02-16T13:47:29.533Z,100404.78
2024-02-16T13:49:58.281Z,100400.66
2024-02-16T13:52:25.889Z,100404.44
2024-02-16T13:54:52.957Z,100400.84
2024-02-16T13:57:20.552Z,100410.38
2024-02-16T13:59:47.820Z,100414.03
2024-02-16T14:02:14.907Z,100413.03
2024-02-16T14:04:42.607Z,100407.41
2024-02-16T14:07:11.278Z,100415.31
2024-02-16T14:09:38.586Z,100408.69
2024-02-16T14:12:05.919Z,100416.31
2024-02-16T14:14:37.839Z,100416.75
2024-02-16T14:17:06.273Z,100422.75
2024-02-16T14:19:35.398Z,100411.06
2024-02-16T14:22:02.804Z,100420.72
2024-02-16T14:24:29.885Z,100421.56
2024-02-16T14:26:56.927Z,100430.16
2024-02-16T14:29:23.998Z,100429.09
2024-02-16T14:31:51.007Z,100437.09
2024-02-16T14:34:18.328Z,100434.44
2024-02-16T14:36:45.547Z,100426.63
2024-02-16T14:39:13.306Z,100428.16
2024-02-16T14:41:40.561Z,100431.34
2024-02-16T14:44:07.584Z,100434.75
2024-02-16T14:46:35.523Z,100444.84
2024-02-16T14:49:03.278Z,100445.50
2024-02-16T14:51:30.671Z,100450.72
2024-02-16T14:53:57.551Z,100445.31
2024-02-16T14:56:24.996Z,100447.72
2024-02-16T14:58:52.242Z,100455.88
2024-02-16T15:01:19.418Z,100454.75
2024-02-16T15:03:46.563Z,100458.84
2024-02-16T15:06:13.667Z,100451.66
2024-02-16T15:08:40.626Z,100449.66
2024-02-16T15:11:07.545Z,100461.94
2024-02-16T15:13:36.459Z,100454.53
2024-02-16T15:16:03.379Z,100462.75
2024-02-16T15:18:30.545Z,100470.91
2024-02-16T15:20:57.661Z,100458.16
2024-02-16T15:23:24.887Z,100458.72
2024-02-16T15:25:51.726Z,100460.25
2024-02-16T15:28:18.891Z,100465.16
2024-02-16T15:30:46.008Z,100463.66
2024-02-16T15:33:12.995Z,100464.69
2024-02-16T15:35:39.910Z,100473.03
2024-02-16T15:38:07.373Z,100467.31
2024-02-16T15:40:34.321Z,100477.88
2024-02-16T15:43:02.969Z,100469.41
2024-02-16T15:45:30.248Z,100476.63
2024-02-16T15:47:57.233Z,100478.06
2024-02-16T15:50:27.157Z,100472.78
2024-02-16T15:52:54.389Z,100483.28
2024-02-16T15:55:21.443Z,100483.91
2024-02-16T15:57:48.384Z,100485.47
2024-02-16T16:00:16.126Z,100493.03
2024-02-16T16:02:43.021Z,100499.59
2024-02-16T16:05:10.355Z,100490.28
2024-02-16T16:07:37.245Z,100493.75
2024-02-16T16:10:04.429Z,100505.53
2024-02-16T16:12:31.442Z,100503.47
2024-02-16T16:14:58.380Z,100504.06
2024-02-16T16:17:25.402Z,100507.81
2024-02-16T16:19:52.386Z,100507.81
2024-02-16T16:22:19.335Z,100509.06
2024-02-16T16:24:46.298Z,100507.28
2024-02-16T16:27:13.788Z,100514.75
2024-02-16T16:29:40.735Z,100523.41
2024-02-16T16:32:07.798Z,100515.81
2024-02-16T16:34:34.787Z,100515.59
2024-02-16T16:37:01.895Z,100521.94
2024-02-16T16:39:28.798Z,100531.13
2024-02-16T16:41:56.156Z,100532.34
2024-02-16T16:44:23.937Z,100518.19
2024-02-16T16:46:50.974Z,100532.72
2024-02-16T16:49:17.946Z,100530.72
2024-02-16T16:51:44.983Z,100531.28
2024-02-16T16:54:11.989Z,100533.06
2024-02-16T16:56:39.230Z,100538.63
2024-02-16T16:59:06.251Z,100536.69
2024-02-16T17:01:33.322Z,100529.03
2024-02-16T17:04:01.281Z,100538.94
2024-02-16T17:06:29.052Z,100548.84
2024-02-16T17:08:57.841Z,100547.75
2024-02-16T17:11:24.866Z,100550.22
2024-02-16T17:13:51.881Z,100551.59
2024-02-16T17:16:18.762Z,100550.81
2024-02-16T17:18:45.776Z,100553.88
2024-02-16T17:21:13.894Z,100551.66
2024-02-16T17:23:41.607Z,100549.06
2024-02-16T17:26:08.530Z,100542.94
2024-02-16T17:28:37.945Z,100548.81
2024-02-16T17:31:04.941Z,100546.00
2024-02-16T17:33:32.414Z,100543.25
2024-02-16T17:35:59.517Z,100543.44
2024-02-16T17:38:26.460Z,100548.97
2024-02-16T17:40:53.365Z,100550.03
2024-02-16T17:43:20.212Z,100550.66
2024-02-16T17:45:47.266Z,100549.97
2024-02-16T17:48:14.409Z,100552.72
2024-02-16T17:50:41.817Z,100548.47
2024-02-16T17:53:08.771Z,100557.22
2024-02-16T17:55:35.653Z,100544.91
2024-02-16T17:58:03.847Z,100550.91
2024-02-16T18:00:31.232Z,100554.66
2024-02-16T18:02:58.243Z,100552.69
2024-02-16T18:05:25.266Z,100540.78
2024-02-16T18:07:52.864Z,100553.47
2024-02-16T18:10:21.881Z,100547.75
2024-02-16T18:12:50.121Z,100542.91
2024-02-16T18:15:17.967Z,100550.31
2024-02-16T18:17:44.920Z,100553.19
2024-02-16T18:20:13.689Z,100552.78
2024-02-16T18:22:41.575Z,100551.09
2024-02-16T18:25:09.030Z,100556.53
2024-02-16T18:27:36.079Z,100558.88
2024-02-16T18:30:03.174Z,100553.50
2024-02-16T18:32:30.496Z,100559.84
2024-02-16T18:34:57.765Z,100557.28
2024-02-16T18:37:24.695Z,100557.81
2024-02-16T18:39:51.683Z,100567.94
2024-02-16T18:42:18.688Z,100568.59
2024-02-16T18:44:45.717Z,100568.28
2024-02-16T18:47:12.626Z,100570.97
2024-02-16T18:49:39.627Z,100571.97
2024-02-16T18:52:06.688Z,100570.06
2024-02-16T18:54:33.699Z,100570.34
2024-02-16T18:57:00.721Z,100570.00
2024-02-16T18:59:27.677Z,100569.97
2024-02-16T19:02:02.157Z,100570.59
2024-02-16T19:04:32.189Z,100570.53
2024-02-16T19:06:59.329Z,100575.78
2024-02-16T19:09:26.452Z,100570.03
2024-02-16T19:11:53.349Z,100583.94
2024-02-16T19:14:21.182Z,100585.13
2024-02-16T19:16:48.042Z,100576.69
2024-02-16T19:19:15.666Z,100585.78
2024-02-16T19:21:44.070Z,100580.78
2024-02-16T19:24:11.387Z,100582.00
2024-02-16T19:26:38.412Z,100588.97
2024-02-16T19:29:05.303Z,100579.94
2024-02-16T19:31:34.438Z,100575.03
2024-02-16T19:34:02.227Z,100586.66
2024-02-16T19:36:29.766Z,100581.84
2024-02-16T19:38:59.537Z,100581.38
2024-02-16T19:41:26.431Z,100586.66
2024-02-16T19:43:53.476Z,100584.88
2024-02-16T19:46:20.659Z,100591.41
2024-02-16T19:48:48.352Z,100591.84
2024-02-16T19:51:15.523Z,100581.56
2024-02-16T19:53:42.425Z,100589.31
2024-02-16T19:56:09.372Z,100582.84
2024-02-16T19:58:36.289Z,100577.66
2024-02-16T20:01:03.726Z,100577.91
2024-02-16T20:03:30.780Z,100574.66
2024-02-16T20:05:57.998Z,100576.63
2024-02-16T20:08:24.964Z,100575.06
2024-02-16T20:10:52.861Z,100585.88
2024-02-16T20:13:19.862Z,100586.50
2024-02-16T20:15:46.881Z,100579.03
2024-02-16T20:18:18.928Z,100567.88
2024-02-16T20:20:47.183Z,100583.94
2024-02-16T20:23:14.222Z,100582.75
2024-02-16T20:25:41.088Z,100588.38
2024-02-16T20:28:08.010Z,100581.03
2024-02-16T20:30:35.217Z,100591.66
2024-02-16T20:33:06.307Z,100589.34
2024-02-16T20:35:33.248Z,100582.69
2024-02-16T20:38:00.957Z,100588.41
2024-02-16T20:40:28.269Z,100592.56
2024-02-16T20:42:55.190Z,100585.38
2024-02-16T20:45:22.149Z,100591.88
2024-02-16T20:47:49.096Z,100602.88
2024-02-16T20:50:17.662Z,100599.31
2024-02-16T20:52:45.457Z,100602.25
2024-02-16T20:55:12.491Z,100602.31
2024-02-16T20:57:39.513Z,100609.94
2024-02-16T21:00:12.800Z,100611.00
2024-02-16T21:02:40.018Z,100611.16
2024-02-16T21:05:07.472Z,100613.41
2024-02-16T21:07:34.412Z,100610.13
2024-02-16T21:10:01.269Z,100609.69
2024-02-16T21:12:29.816Z,100615.81
2024-02-16T21:14:56.890Z,100613.94
2024-02-16T21:17:23.765Z,100609.22
2024-02-16T21:19:50.724Z,100611.25
2024-02-16T21:22:17.643Z,100611.00
2024-02-16T21:24:44.614Z,100609.81
2024-02-16T21:27:11.541Z,100600.84
2024-02-16T21:29:41.321Z,100611.47
2024-02-16T21:32:08.263Z,100610.97
2024-02-16T21:34:35.306Z,100608.44
2024-02-16T21:37:05.077Z,100612.44
2024-02-16T21:39:32.270Z,100601.81
2024-02-16T21:41:59.275Z,100611.97
2024-02-16T21:44:26.763Z,100614.31
2024-02-16T21:46:53.677Z,100619.13
2024-02-16T21:49:22.507Z,100616.88
2024-02-16T21:51:49.652Z,100616.06
2024-02-16T21:54:16.679Z,100603.88
2024-02-16T21:56:43.601Z,100609.81
2024-02-16T21:59:10.800Z,100614.22
2024-02-16T22:01:37.990Z,100612.44
2024-02-16T22:04:05.121Z,100613.28
2024-02-16T22:06:32.237Z,100617.56
2024-02-16T22:08:59.460Z,100618.13
2024-02-16T22:11:27.737Z,100632.72
2024-02-16T22:13:55.047Z,100630.09
2024-02-16T22:16:22.195Z,100627.13
2024-02-16T22:18:50.638Z,100630.16
2024-02-16T22:21:20.140Z,100634.28
2024-02-16T22:23:52.384Z,100636.22
2024-02-16T22:26:19.225Z,100637.34
2024-02-16T22:28:46.063Z,100639.31
2024-02-16T22:31:12.959Z,100641.03
2024-02-16T22:33:39.921Z,100642.25
2024-02-16T22:36:07.460Z,100638.41
2024-02-16T22:38:34.620Z,100646.78
2024-02-16T22:41:01.893Z,100644.09
2024-02-16T22:43:29.297Z,100648.56
2024-02-16T22:45:57.062Z,100653.44
2024-02-16T22:48:24.437Z,100650.97
2024-02-16T22:50:51.577Z,100652.97
2024-02-16T22:53:18.621Z,100650.56
2024-02-16T22:55:47.549Z,100655.13
2024-02-16T22:58:14.623Z,100655.78
2024-02-16T23:00:42.534Z,100655.19
2024-02-16T23:03:11.914Z,100653.91
2024-02-16T23:05:39.842Z,100647.50
2024-02-16T23:08:08.364Z,100644.97
2024-02-16T23:10:36.873Z,100648.38
2024-02-16T23:13:04.244Z,100659.72
2024-02-16T23:15:34.661Z,100642.59
2024-02-16T23:18:03.381Z,100659.97
2024-02-16T23:20:31.610Z,100663.66
2024-02-16T23:23:16.237Z,100654.16
2024-02-16T23:25:44.559Z,100652.59
2024-02-16T23:28:16.434Z,100659.22
2024-02-16T23:30:44.431Z,100649.56
2024-02-16T23:33:12.549Z,100655.75
2024-02-16T23:35:40.216Z,100654.59
2024-02-16T23:38:07.168Z,100661.94
2024-02-16T23:40:34.058Z,100653.69
2024-02-16T23:43:00.943Z,100658.16
2024-02-16T23:45:33.916Z,100658.66
2024-02-16T23:48:01.187Z,100666.13
2024-02-16T23:50:31.028Z,100664.78
2024-02-16T23:52:58.809Z,100660.50
2024-02-16T23:55:25.984Z,100660.34
2024-02-16T23:57:55.893Z,100663.84
